Time;durP1;ratioP1;P1;durP2;ratioP2;P2;SDS_P1;SDS_P2;PMS_P1;PMS_P2;Temp;Humidity;BMP_temperature;BMP_pressure;BME280_temperature;BME280_humidity;BME280_pressure;Samples;Min_cycle;Max_cycle;Signal;HPM_P1;HPM_P2
2022/07/17 00:00:40;;;;;;;;;;;20.10;77.60;;;;;;1989122;28;19972;-67
2022/07/17 00:01:38;;;;;;;;;;;20.00;77.20;;;;;;1989314;28;19909;-66
2022/07/17 00:02:37;;;;;;;;;;;20.10;78.40;;;;;;1989593;28;19906;-67
2022/07/17 00:03:35;;;;;;;;;;;20.10;77.90;;;;;;1989528;28;19912;-66
2022/07/17 00:04:34;;;;;;;;;;;20.00;77.60;;;;;;1989362;28;19906;-66
2022/07/17 00:05:32;;;;;;;;;;;20.10;77.80;;;;;;1989407;28;19912;-66
2022/07/17 00:06:31;;;;;;;;;;;20.10;77.40;;;;;;1989441;28;19906;-67
2022/07/17 00:07:29;;;;;;;;;;;20.10;78.00;;;;;;1989331;28;19910;-67
2022/07/17 00:08:30;;;;;;;;;;;20.10;77.80;;;;;;1996495;28;19910;-67
2022/07/17 00:09:29;;;;;;;;;;;20.00;77.40;;;;;;1996367;28;19910;-67
2022/07/17 00:10:27;;;;;;;;;;;20.00;77.30;;;;;;1989426;28;19907;-67
2022/07/17 00:11:26;;;;;;;;;;;20.00;77.00;;;;;;1989339;28;19929;-67
2022/07/17 00:12:24;;;;;;;;;;;20.00;77.00;;;;;;1989304;28;19906;-67
2022/07/17 00:13:23;;;;;;;;;;;20.00;77.00;;;;;;1989194;28;19929;-68
2022/07/17 00:14:22;;;;;;;;;;;20.00;77.30;;;;;;1989153;28;19910;-67
2022/07/17 00:15:21;;;;;;;;;;;20.10;77.60;;;;;;1996721;28;19910;-67
2022/07/17 00:16:19;;;;;;;;;;;20.00;77.10;;;;;;1996428;28;19906;-67
2022/07/17 00:17:18;;;;;;;;;;;20.00;77.20;;;;;;1989876;28;19910;-67
2022/07/17 00:18:16;;;;;;;;;;;20.00;77.30;;;;;;1989360;28;19910;-67
2022/07/17 00:19:16;;;;;;;;;;;20.00;77.40;;;;;;1988514;28;19914;-67
2022/07/17 00:20:15;;;;;;;;;;;20.00;77.40;;;;;;1988592;28;20014;-66
2022/07/17 00:21:13;;;;;;;;;;;20.00;77.80;;;;;;1989282;28;19974;-67
2022/07/17 00:22:13;;;;;;;;;;;20.00;77.60;;;;;;1989408;28;19932;-67
2022/07/17 00:23:11;;;;;;;;;;;20.10;77.80;;;;;;1989260;28;19945;-67
2022/07/17 00:24:12;;;;;;;;;;;20.00;78.00;;;;;;1988965;28;20346;-67
2022/07/17 00:25:10;;;;;;;;;;;20.00;77.70;;;;;;1989439;28;19957;-68
2022/07/17 00:26:09;;;;;;;;;;;20.00;77.80;;;;;;1989461;28;19906;-68
2022/07/17 00:27:07;;;;;;;;;;;20.00;77.80;;;;;;1989276;28;19913;-68
2022/07/17 00:28:06;;;;;;;;;;;20.10;78.90;;;;;;1989273;28;19906;-68
2022/07/17 00:29:04;;;;;;;;;;;20.10;78.10;;;;;;1989240;28;19949;-68
2022/07/17 00:30:03;;;;;;;;;;;20.00;78.20;;;;;;1989362;28;19993;-68
2022/07/17 00:31:02;;;;;;;;;;;20.00;78.10;;;;;;1989323;28;20329;-68
2022/07/17 00:32:01;;;;;;;;;;;20.00;78.50;;;;;;1989270;28;19906;-68
2022/07/17 00:32:59;;;;;;;;;;;20.00;78.80;;;;;;1989276;28;19938;-68
2022/07/17 00:33:58;;;;;;;;;;;20.00;78.90;;;;;;1989330;28;19922;-68
2022/07/17 00:34:57;;;;;;;;;;;20.00;78.80;;;;;;1989167;28;19906;-68
2022/07/17 00:35:55;;;;;;;;;;;20.00;78.70;;;;;;1989170;28;19914;-69
2022/07/17 00:36:54;;;;;;;;;;;20.10;79.10;;;;;;1989061;28;19910;-68
2022/07/17 00:37:52;;;;;;;;;;;20.00;78.80;;;;;;1989309;28;19962;-68
2022/07/17 00:38:51;;;;;;;;;;;20.00;79.00;;;;;;1989224;28;19910;-67
2022/07/17 00:39:49;;;;;;;;;;;20.00;79.20;;;;;;1996346;28;20516;-69
2022/07/17 00:40:48;;;;;;;;;;;20.00;79.20;;;;;;1996484;28;19912;-68
2022/07/17 00:41:46;;;;;;;;;;;20.00;79.30;;;;;;1989758;28;19913;-67
2022/07/17 00:42:46;;;;;;;;;;;20.00;79.30;;;;;;1989192;28;20435;-68
2022/07/17 00:43:45;;;;;;;;;;;20.00;78.90;;;;;;1989168;28;19994;-68
2022/07/17 00:44:44;;;;;;;;;;;20.00;79.20;;;;;;1989174;28;19913;-68
2022/07/17 00:45:42;;;;;;;;;;;20.00;79.20;;;;;;1989173;28;19945;-68
2022/07/17 00:46:41;;;;;;;;;;;20.00;80.10;;;;;;1989254;28;19988;-68
2022/07/17 00:47:57;;;;;;;;;;;20.00;80.00;;;;;;1989231;28;20301;-68
2022/07/17 00:48:55;;;;;;;;;;;20.00;81.20;;;;;;1990632;28;19906;-68
2022/07/17 00:49:54;;;;;;;;;;;20.00;81.50;;;;;;1990760;28;19914;-69
2022/07/17 00:50:54;;;;;;;;;;;20.00;81.50;;;;;;1990725;28;20336;-68
2022/07/17 00:51:52;;;;;;;;;;;20.00;82.20;;;;;;1990780;28;20376;-68
2022/07/17 00:52:51;;;;;;;;;;;20.00;82.60;;;;;;1990589;28;19971;-68
2022/07/17 00:53:49;;;;;;;;;;;19.90;83.50;;;;;;1990681;28;20254;-68
2022/07/17 00:54:49;;;;;;;;;;;20.00;84.10;;;;;;1990887;28;20009;-68
2022/07/17 00:55:48;;;;;;;;;;;20.00;89.30;;;;;;1990727;28;19913;-68
2022/07/17 00:56:48;;;;;;;;;;;20.00;83.10;;;;;;1990628;28;20001;-68
2022/07/17 00:57:47;;;;;;;;;;;20.00;83.60;;;;;;1990583;28;20269;-68
2022/07/17 00:58:48;;;;;;;;;;;20.00;83.40;;;;;;1990686;28;19964;-68
2022/07/17 00:59:46;;;;;;;;;;;20.00;84.50;;;;;;1990645;28;19944;-68
2022/07/17 01:00:45;;;;;;;;;;;20.00;78.80;;;;;;1990425;28;20273;-68
2022/07/17 01:01:43;;;;;;;;;;;20.00;78.40;;;;;;1990843;28;19916;-68
2022/07/17 01:02:49;;;;;;;;;;;20.00;78.50;;;;;;1990642;28;19910;-68
2022/07/17 01:03:47;;;;;;;;;;;20.00;78.00;;;;;;1990602;28;19906;-68
2022/07/17 01:04:47;;;;;;;;;;;19.90;78.50;;;;;;1990662;28;19960;-68
2022/07/17 01:05:46;;;;;;;;;;;20.00;78.30;;;;;;1990551;28;19974;-68
2022/07/17 01:06:44;;;;;;;;;;;20.00;79.40;;;;;;1990544;28;19968;-68
2022/07/17 01:07:43;;;;;;;;;;;20.00;79.20;;;;;;1990629;28;19906;-68
2022/07/17 01:08:41;;;;;;;;;;;20.00;79.70;;;;;;1997771;28;19913;-68
2022/07/17 01:09:41;;;;;;;;;;;19.90;79.30;;;;;;1997703;28;19941;-69
2022/07/17 01:10:39;;;;;;;;;;;20.00;79.80;;;;;;1990911;28;19906;-68
2022/07/17 01:11:39;;;;;;;;;;;19.90;79.40;;;;;;1990571;28;19956;-68
2022/07/17 01:12:38;;;;;;;;;;;20.00;79.90;;;;;;1990460;28;19953;-68
2022/07/17 01:13:36;;;;;;;;;;;20.00;79.60;;;;;;1990587;28;19960;-68
2022/07/17 01:14:35;;;;;;;;;;;20.00;79.40;;;;;;1990781;28;19941;-68
2022/07/17 01:15:38;;;;;;;;;;;19.90;80.10;;;;;;1990542;28;19906;-68
2022/07/17 01:16:36;;;;;;;;;;;19.90;79.80;;;;;;1997701;28;19960;-68
2022/07/17 01:17:35;;;;;;;;;;;20.00;79.40;;;;;;1997805;28;19913;-68
2022/07/17 01:18:35;;;;;;;;;;;19.90;79.60;;;;;;1990289;28;19992;-68
2022/07/17 01:19:33;;;;;;;;;;;20.00;80.80;;;;;;1989964;28;20001;-68
2022/07/17 01:20:32;;;;;;;;;;;19.90;81.00;;;;;;1990458;28;19917;-68
2022/07/17 01:21:38;;;;;;;;;;;20.00;81.00;;;;;;1990415;28;20313;-68
2022/07/17 01:22:43;;;;;;;;;;;19.90;82.00;;;;;;1990388;28;19909;-68
2022/07/17 01:23:41;;;;;;;;;;;19.90;81.20;;;;;;1990395;28;19906;-68
2022/07/17 01:24:41;;;;;;;;;;;20.00;81.50;;;;;;1990509;28;19906;-68
2022/07/17 01:25:39;;;;;;;;;;;19.90;82.00;;;;;;1997675;28;19932;-68
2022/07/17 01:26:40;;;;;;;;;;;19.90;82.50;;;;;;1997658;28;19921;-68
2022/07/17 01:27:39;;;;;;;;;;;19.80;83.80;;;;;;1990699;28;20062;-68
2022/07/17 01:28:37;;;;;;;;;;;19.90;82.90;;;;;;1990597;28;20347;-68
2022/07/17 01:29:36;;;;;;;;;;;20.00;82.10;;;;;;1990437;28;19910;-68
2022/07/17 01:30:35;;;;;;;;;;;20.00;80.80;;;;;;1990276;28;19906;-68
2022/07/17 01:31:33;;;;;;;;;;;20.00;81.70;;;;;;1990415;28;20276;-68
2022/07/17 01:32:36;;;;;;;;;;;19.90;80.90;;;;;;1990491;28;20254;-68
2022/07/17 01:33:35;;;;;;;;;;;20.00;80.50;;;;;;1990489;28;19913;-66
2022/07/17 01:34:33;;;;;;;;;;;19.90;80.00;;;;;;1990469;28;20273;-67
2022/07/17 01:35:33;;;;;;;;;;;19.90;79.70;;;;;;1990500;28;19910;-68
2022/07/17 01:36:32;;;;;;;;;;;19.90;79.90;;;;;;1990321;28;19914;-68
2022/07/17 01:37:31;;;;;;;;;;;19.90;80.00;;;;;;1990320;28;19912;-67
2022/07/17 01:38:29;;;;;;;;;;;19.90;79.70;;;;;;1990440;28;19952;-68
2022/07/17 01:40:45;;;;;;;;;;;19.90;79.00;;;;;;1990412;28;19906;-68
2022/07/17 01:41:44;;;;;;;;;;;19.90;80.00;;;;;;1990498;28;19906;-67
2022/07/17 01:42:45;;;;;;;;;;;19.80;80.10;;;;;;1990325;28;19906;-67
2022/07/17 01:43:43;;;;;;;;;;;19.90;79.80;;;;;;1990357;28;20277;-67
2022/07/17 01:44:41;;;;;;;;;;;19.90;79.30;;;;;;1990282;28;19980;-67
2022/07/17 01:45:40;;;;;;;;;;;19.90;78.80;;;;;;1990294;28;19913;-68
2022/07/17 01:46:38;;;;;;;;;;;19.90;78.90;;;;;;1990361;28;19953;-67
2022/07/17 01:47:37;;;;;;;;;;;19.90;78.50;;;;;;1990299;28;19910;-68
2022/07/17 01:48:36;;;;;;;;;;;19.90;78.00;;;;;;1990323;28;20406;-68
2022/07/17 01:49:34;;;;;;;;;;;19.90;77.70;;;;;;1997413;28;19909;-68
2022/07/17 01:50:33;;;;;;;;;;;19.90;77.90;;;;;;1997469;28;19905;-67
2022/07/17 01:51:31;;;;;;;;;;;19.90;78.00;;;;;;1990742;28;19917;-68
2022/07/17 01:52:30;;;;;;;;;;;19.90;77.70;;;;;;1990390;28;19913;-68
2022/07/17 01:53:28;;;;;;;;;;;19.90;77.80;;;;;;1990320;28;19957;-67
2022/07/17 01:54:27;;;;;;;;;;;19.90;77.50;;;;;;1990218;28;19906;-68
2022/07/17 01:55:27;;;;;;;;;;;19.90;78.00;;;;;;1990351;28;20281;-67
2022/07/17 01:56:25;;;;;;;;;;;20.00;77.30;;;;;;1990208;28;19949;-67
2022/07/17 01:57:24;;;;;;;;;;;19.90;77.70;;;;;;1990194;28;19920;-67
2022/07/17 01:58:22;;;;;;;;;;;19.90;77.60;;;;;;1990143;28;19906;-67
2022/07/17 01:59:21;;;;;;;;;;;19.90;77.70;;;;;;1990118;28;19958;-68
2022/07/17 02:00:23;;;;;;;;;;;19.90;78.00;;;;;;1990104;28;19906;-67
2022/07/17 02:01:23;;;;;;;;;;;19.90;77.70;;;;;;1989968;28;19922;-67
2022/07/17 02:02:22;;;;;;;;;;;19.90;77.80;;;;;;1990312;28;20006;-67
2022/07/17 02:03:21;;;;;;;;;;;19.90;77.60;;;;;;1990244;28;20041;-67
2022/07/17 02:04:19;;;;;;;;;;;19.90;78.00;;;;;;1990261;28;20321;-67
2022/07/17 02:05:18;;;;;;;;;;;19.90;77.80;;;;;;1990192;28;19965;-68
2022/07/17 02:06:16;;;;;;;;;;;19.90;77.70;;;;;;1990073;28;20374;-68
2022/07/17 02:07:15;;;;;;;;;;;19.90;78.40;;;;;;1990153;28;19906;-68
2022/07/17 02:08:13;;;;;;;;;;;19.80;77.80;;;;;;1990125;28;20289;-68
2022/07/17 02:09:12;;;;;;;;;;;19.80;77.80;;;;;;1990172;28;20321;-68
2022/07/17 02:10:10;;;;;;;;;;;19.90;78.10;;;;;;1990122;28;20346;-68
2022/07/17 02:11:09;;;;;;;;;;;19.90;78.30;;;;;;1990072;28;20366;-67
2022/07/17 02:12:07;;;;;;;;;;;19.80;78.90;;;;;;1990032;28;19913;-67
2022/07/17 02:13:06;;;;;;;;;;;19.90;79.70;;;;;;1990212;28;19906;-67
2022/07/17 02:14:05;;;;;;;;;;;19.90;78.70;;;;;;1990089;28;19906;-68
2022/07/17 02:15:04;;;;;;;;;;;19.80;78.90;;;;;;1997397;28;20012;-68
2022/07/17 02:16:02;;;;;;;;;;;19.90;79.30;;;;;;1997275;28;19909;-68
2022/07/17 02:17:02;;;;;;;;;;;19.80;79.20;;;;;;1990196;28;19916;-67
2022/07/17 02:18:00;;;;;;;;;;;19.90;79.50;;;;;;1990252;28;19910;-68
2022/07/17 02:18:59;;;;;;;;;;;19.80;79.70;;;;;;1990072;28;19985;-68
2022/07/17 02:19:57;;;;;;;;;;;19.80;79.80;;;;;;1990251;28;20211;-68
2022/07/17 02:20:56;;;;;;;;;;;19.80;80.00;;;;;;1990045;28;20060;-68
2022/07/17 02:21:54;;;;;;;;;;;19.80;80.30;;;;;;1990066;28;19906;-68
2022/07/17 02:22:53;;;;;;;;;;;19.80;81.00;;;;;;1989946;28;19913;-68
2022/07/17 02:23:52;;;;;;;;;;;19.90;81.20;;;;;;1989981;28;19910;-67
2022/07/17 02:24:51;;;;;;;;;;;19.90;81.90;;;;;;1989954;28;19906;-67
2022/07/17 02:25:49;;;;;;;;;;;19.90;82.10;;;;;;1989947;28;19997;-68
2022/07/17 02:26:48;;;;;;;;;;;19.90;82.60;;;;;;1990097;28;19910;-68
2022/07/17 02:27:46;;;;;;;;;;;19.90;85.00;;;;;;1990199;28;19946;-68
2022/07/17 02:28:45;;;;;;;;;;;20.10;83.70;;;;;;1989997;28;19993;-68
2022/07/17 02:29:43;;;;;;;;;;;19.80;77.70;;;;;;1990009;28;19906;-68
2022/07/17 02:30:42;;;;;;;;;;;19.90;74.80;;;;;;1989866;28;19949;-68
2022/07/17 02:31:41;;;;;;;;;;;19.80;73.20;;;;;;1989957;28;19914;-67
2022/07/17 02:32:40;;;;;;;;;;;19.90;73.00;;;;;;1990005;28;19925;-67
2022/07/17 02:33:38;;;;;;;;;;;19.90;72.90;;;;;;1989894;28;19906;-68
2022/07/17 02:34:38;;;;;;;;;;;19.90;72.80;;;;;;1990004;28;19906;-68
2022/07/17 02:35:36;;;;;;;;;;;19.80;72.60;;;;;;1990081;28;19954;-68
2022/07/17 02:36:35;;;;;;;;;;;19.90;72.40;;;;;;1989840;28;20321;-67
2022/07/17 02:37:33;;;;;;;;;;;19.80;72.30;;;;;;1989811;28;19910;-68
2022/07/17 02:38:32;;;;;;;;;;;19.80;72.50;;;;;;1989950;28;19910;-68
2022/07/17 02:39:30;;;;;;;;;;;19.90;72.30;;;;;;1990082;28;19913;-68
2022/07/17 02:40:29;;;;;;;;;;;19.90;72.30;;;;;;1989902;28;19912;-68
2022/07/17 02:41:27;;;;;;;;;;;19.80;72.20;;;;;;1989826;28;19913;-68
2022/07/17 02:42:26;;;;;;;;;;;19.80;72.20;;;;;;1989833;28;19906;-68
2022/07/17 02:43:25;;;;;;;;;;;19.90;72.30;;;;;;1989929;28;20365;-68
2022/07/17 02:44:23;;;;;;;;;;;19.80;72.10;;;;;;1989879;28;19936;-68
2022/07/17 02:45:24;;;;;;;;;;;19.80;72.50;;;;;;1989915;28;19910;-68
2022/07/17 02:46:23;;;;;;;;;;;19.80;72.40;;;;;;1989878;28;20322;-68
2022/07/17 02:47:25;;;;;;;;;;;19.80;72.70;;;;;;1989780;28;20064;-67
2022/07/17 02:48:24;;;;;;;;;;;19.80;72.50;;;;;;1989903;28;19913;-68
2022/07/17 02:49:22;;;;;;;;;;;19.80;71.80;;;;;;1989953;28;19949;-68
2022/07/17 02:50:21;;;;;;;;;;;19.80;72.30;;;;;;1989811;28;19913;-67
2022/07/17 02:51:19;;;;;;;;;;;19.90;72.00;;;;;;1989829;28;19913;-68
2022/07/17 02:52:18;;;;;;;;;;;19.90;72.60;;;;;;1989945;28;19993;-67
2022/07/17 02:53:17;;;;;;;;;;;19.80;72.30;;;;;;1990013;28;19932;-67
2022/07/17 02:54:16;;;;;;;;;;;19.80;72.40;;;;;;1990159;28;19909;-68
2022/07/17 02:55:16;;;;;;;;;;;19.80;71.60;;;;;;1989979;28;19996;-67
2022/07/17 02:56:14;;;;;;;;;;;19.80;72.20;;;;;;1989843;28;19906;-68
2022/07/17 02:57:13;;;;;;;;;;;19.80;72.20;;;;;;1989734;28;19913;-67
2022/07/17 02:58:11;;;;;;;;;;;19.90;72.50;;;;;;1989925;28;19910;-67
2022/07/17 02:59:10;;;;;;;;;;;19.80;72.50;;;;;;1989785;28;19913;-68
2022/07/17 03:00:10;;;;;;;;;;;19.80;72.60;;;;;;1989879;28;19913;-67
2022/07/17 03:01:09;;;;;;;;;;;19.90;72.60;;;;;;1989639;28;19917;-67
2022/07/17 03:02:08;;;;;;;;;;;19.80;72.40;;;;;;1989711;28;19952;-68
2022/07/17 03:03:06;;;;;;;;;;;19.90;72.40;;;;;;1989880;28;20342;-68
2022/07/17 03:04:04;;;;;;;;;;;19.80;72.50;;;;;;1989619;28;19906;-67
2022/07/17 03:05:04;;;;;;;;;;;19.80;72.50;;;;;;1989668;28;19906;-67
2022/07/17 03:06:02;;;;;;;;;;;19.80;72.50;;;;;;1989738;28;19910;-68
2022/07/17 03:07:01;;;;;;;;;;;19.80;72.30;;;;;;1989712;28;19906;-68
2022/07/17 03:07:59;;;;;;;;;;;19.80;72.50;;;;;;1989775;28;20049;-68
2022/07/17 03:08:58;;;;;;;;;;;19.80;72.50;;;;;;1989700;28;19905;-68
2022/07/17 03:09:56;;;;;;;;;;;19.90;72.70;;;;;;1996830;28;19910;-67
2022/07/17 03:10:55;;;;;;;;;;;19.80;72.70;;;;;;1996065;28;20316;-67
2022/07/17 03:11:53;;;;;;;;;;;19.80;72.60;;;;;;1989432;28;20275;-68
2022/07/17 03:12:52;;;;;;;;;;;19.80;72.80;;;;;;1989482;28;19910;-67
2022/07/17 03:13:50;;;;;;;;;;;19.80;72.30;;;;;;1989559;28;20354;-68
2022/07/17 03:14:49;;;;;;;;;;;19.80;72.50;;;;;;1989732;28;19992;-68
2022/07/17 03:15:47;;;;;;;;;;;19.80;72.80;;;;;;1989521;28;20290;-68
2022/07/17 03:16:46;;;;;;;;;;;19.80;72.60;;;;;;1989498;28;20281;-68
2022/07/17 03:17:44;;;;;;;;;;;19.80;72.50;;;;;;1996759;28;20001;-67
2022/07/17 03:18:43;;;;;;;;;;;19.80;72.60;;;;;;1996838;28;19948;-67
2022/07/17 03:19:41;;;;;;;;;;;19.80;72.60;;;;;;1989897;28;20345;-67
2022/07/17 03:20:40;;;;;;;;;;;19.80;72.50;;;;;;1989577;28;19906;-68
2022/07/17 03:21:38;;;;;;;;;;;19.80;72.90;;;;;;1989731;28;19918;-68
2022/07/17 03:22:37;;;;;;;;;;;19.80;72.50;;;;;;1989473;28;19929;-67
2022/07/17 03:23:35;;;;;;;;;;;19.80;72.60;;;;;;1989492;28;19906;-67
2022/07/17 03:24:34;;;;;;;;;;;19.80;72.60;;;;;;1989435;28;19953;-68
2022/07/17 03:25:32;;;;;;;;;;;19.80;72.70;;;;;;1989375;28;19912;-68
2022/07/17 03:26:31;;;;;;;;;;;19.80;72.80;;;;;;1989456;28;19945;-67
2022/07/17 03:27:29;;;;;;;;;;;19.80;73.00;;;;;;1989414;28;19913;-68
2022/07/17 03:28:28;;;;;;;;;;;19.80;72.60;;;;;;1989606;28;19953;-67
2022/07/17 03:29:27;;;;;;;;;;;19.80;72.40;;;;;;1989488;28;19906;-67
2022/07/17 03:30:25;;;;;;;;;;;19.80;72.60;;;;;;1989437;28;19906;-68
2022/07/17 03:31:24;;;;;;;;;;;19.90;72.70;;;;;;1989495;28;19953;-67
2022/07/17 03:32:22;;;;;;;;;;;19.80;72.50;;;;;;1989510;28;19949;-67
2022/07/17 03:33:21;;;;;;;;;;;19.80;72.40;;;;;;1989493;28;19913;-67
2022/07/17 03:34:19;;;;;;;;;;;19.80;72.70;;;;;;1989332;28;20004;-68
2022/07/17 03:35:18;;;;;;;;;;;19.80;72.70;;;;;;1989481;28;19953;-67
2022/07/17 03:36:16;;;;;;;;;;;19.80;72.50;;;;;;1989336;28;19937;-68
2022/07/17 03:37:15;;;;;;;;;;;19.80;72.50;;;;;;1989327;28;19933;-68
2022/07/17 03:38:13;;;;;;;;;;;19.80;72.50;;;;;;1989384;28;19906;-68
2022/07/17 03:39:11;;;;;;;;;;;19.90;72.70;;;;;;1989621;28;19916;-68
2022/07/17 03:40:10;;;;;;;;;;;19.80;72.50;;;;;;1989514;28;19971;-68
2022/07/17 03:41:09;;;;;;;;;;;19.80;72.60;;;;;;1989399;28;20365;-68
2022/07/17 03:42:07;;;;;;;;;;;19.80;72.50;;;;;;1989351;28;19961;-67
2022/07/17 03:43:06;;;;;;;;;;;19.80;72.50;;;;;;1989352;28;19945;-67
2022/07/17 03:44:04;;;;;;;;;;;19.80;72.80;;;;;;1989393;28;19953;-68
2022/07/17 03:45:03;;;;;;;;;;;19.80;72.80;;;;;;1989418;28;19906;-67
2022/07/17 03:46:02;;;;;;;;;;;19.80;73.00;;;;;;1989133;28;20005;-68
2022/07/17 03:47:00;;;;;;;;;;;19.80;72.80;;;;;;1996441;28;19945;-67
2022/07/17 03:47:59;;;;;;;;;;;19.80;72.70;;;;;;1996651;28;19952;-67
2022/07/17 03:48:57;;;;;;;;;;;19.80;72.70;;;;;;1989900;28;20269;-68
2022/07/17 03:49:56;;;;;;;;;;;19.80;73.00;;;;;;1989437;28;20419;-67
2022/07/17 03:50:54;;;;;;;;;;;19.80;73.10;;;;;;1996320;28;19937;-68
2022/07/17 03:51:53;;;;;;;;;;;19.80;73.50;;;;;;1996523;28;19913;-69
2022/07/17 03:52:51;;;;;;;;;;;19.80;73.20;;;;;;1989741;28;19906;-68
2022/07/17 03:53:50;;;;;;;;;;;19.80;73.40;;;;;;1989374;28;19906;-68
2022/07/17 03:54:48;;;;;;;;;;;19.80;73.40;;;;;;1989369;28;19907;-68
2022/07/17 03:55:47;;;;;;;;;;;19.80;73.40;;;;;;1989277;28;19949;-67
2022/07/17 03:56:46;;;;;;;;;;;19.80;73.70;;;;;;1989229;28;19917;-66
2022/07/17 03:57:45;;;;;;;;;;;19.80;73.80;;;;;;1989365;28;19973;-67
2022/07/17 03:58:45;;;;;;;;;;;19.80;74.20;;;;;;1989213;28;19956;-67
2022/07/17 03:59:43;;;;;;;;;;;19.80;74.20;;;;;;1989211;28;19993;-67
2022/07/17 04:00:42;;;;;;;;;;;19.80;74.30;;;;;;1988964;28;19913;-67
2022/07/17 04:01:40;;;;;;;;;;;19.80;74.30;;;;;;1989210;28;19921;-67
2022/07/17 04:02:39;;;;;;;;;;;19.90;74.60;;;;;;1989394;28;19933;-68
2022/07/17 04:03:37;;;;;;;;;;;19.80;74.50;;;;;;1989326;28;20069;-68
2022/07/17 04:04:36;;;;;;;;;;;19.90;74.70;;;;;;1989233;28;20012;-68
2022/07/17 04:05:34;;;;;;;;;;;19.80;74.90;;;;;;1989188;28;19945;-67
2022/07/17 04:06:32;;;;;;;;;;;19.80;74.60;;;;;;1989153;28;19914;-68
2022/07/17 04:07:31;;;;;;;;;;;19.90;74.80;;;;;;1989284;28;19956;-67
2022/07/17 04:08:30;;;;;;;;;;;19.80;74.50;;;;;;1988556;28;19945;-69
2022/07/17 04:09:28;;;;;;;;;;;19.80;74.60;;;;;;1988729;28;19952;-68
2022/07/17 04:10:27;;;;;;;;;;;19.80;75.00;;;;;;1989233;28;19990;-67
2022/07/17 04:11:25;;;;;;;;;;;19.80;75.00;;;;;;1989262;28;19953;-67
2022/07/17 04:12:24;;;;;;;;;;;19.90;75.40;;;;;;1989151;28;19913;-66
2022/07/17 04:13:23;;;;;;;;;;;19.80;75.40;;;;;;1989163;28;20383;-68
2022/07/17 04:14:21;;;;;;;;;;;19.80;75.50;;;;;;1989262;28;19933;-68
2022/07/17 04:16:37;;;;;;;;;;;19.80;75.60;;;;;;1989301;28;19910;-68
2022/07/17 04:17:36;;;;;;;;;;;19.80;75.70;;;;;;1989255;28;19906;-68
2022/07/17 04:18:35;;;;;;;;;;;19.80;75.60;;;;;;1989133;28;20272;-68
2022/07/17 04:19:33;;;;;;;;;;;19.80;75.40;;;;;;1989170;28;19905;-67
2022/07/17 04:20:32;;;;;;;;;;;19.80;75.40;;;;;;1989104;28;19910;-67
2022/07/17 04:21:30;;;;;;;;;;;19.80;75.60;;;;;;1989113;28;19913;-67
2022/07/17 04:22:29;;;;;;;;;;;19.80;75.70;;;;;;1989185;28;19960;-68
2022/07/17 04:23:27;;;;;;;;;;;19.80;75.80;;;;;;1989983;28;20013;-66
2022/07/17 04:24:26;;;;;;;;;;;19.80;76.00;;;;;;1990899;28;19942;-66
2022/07/17 04:25:24;;;;;;;;;;;19.80;76.00;;;;;;1990766;28;20081;-67
2022/07/17 04:26:23;;;;;;;;;;;19.80;76.30;;;;;;1990734;28;19945;-67
2022/07/17 04:27:21;;;;;;;;;;;19.80;76.20;;;;;;1990926;28;20018;-66
2022/07/17 04:28:20;;;;;;;;;;;19.80;76.20;;;;;;1990764;28;19910;-67
2022/07/17 04:29:18;;;;;;;;;;;19.80;76.20;;;;;;1990761;28;19913;-68
2022/07/17 04:30:17;;;;;;;;;;;19.80;76.20;;;;;;1990665;28;19917;-67
2022/07/17 04:31:15;;;;;;;;;;;19.80;76.30;;;;;;1990695;28;19906;-67
2022/07/17 04:32:14;;;;;;;;;;;19.80;76.20;;;;;;1990704;28;19957;-67
2022/07/17 04:33:13;;;;;;;;;;;19.80;76.30;;;;;;1990707;28;20361;-67
2022/07/17 04:34:12;;;;;;;;;;;19.80;76.30;;;;;;1990795;28;19960;-67
2022/07/17 04:35:10;;;;;;;;;;;19.80;76.40;;;;;;1990642;28;20397;-67
2022/07/17 04:36:09;;;;;;;;;;;19.80;76.30;;;;;;1990633;28;20337;-67
2022/07/17 04:37:07;;;;;;;;;;;19.80;76.30;;;;;;1990458;28;19961;-68
2022/07/17 04:38:06;;;;;;;;;;;19.80;76.40;;;;;;1990643;28;19906;-68
2022/07/17 04:39:05;;;;;;;;;;;19.90;76.60;;;;;;1990600;28;20316;-68
2022/07/17 04:40:04;;;;;;;;;;;19.80;76.20;;;;;;1990570;28;19925;-68
2022/07/17 04:41:03;;;;;;;;;;;19.80;76.10;;;;;;1990581;28;19992;-69
2022/07/17 04:42:01;;;;;;;;;;;19.80;76.00;;;;;;1990660;28;20127;-68
2022/07/17 04:43:00;;;;;;;;;;;19.80;75.50;;;;;;1990535;28;19906;-67
2022/07/17 04:43:58;;;;;;;;;;;19.80;75.60;;;;;;1990566;28;19996;-67
2022/07/17 04:44:57;;;;;;;;;;;19.80;75.70;;;;;;1990663;28;19953;-67
2022/07/17 04:45:55;;;;;;;;;;;19.80;76.10;;;;;;1990538;28;19906;-68
2022/07/17 04:46:55;;;;;;;;;;;19.90;75.90;;;;;;1990605;28;19910;-67
2022/07/17 04:47:54;;;;;;;;;;;19.80;76.10;;;;;;1990769;28;19912;-68
2022/07/17 04:51:00;;;;;;;;;;;19.80;76.30;;;;;;1990791;28;20265;-67
2022/07/17 04:51:58;;;;;;;;;;;19.80;76.20;;;;;;1990543;28;19949;-67
2022/07/17 04:52:57;;;;;;;;;;;19.80;76.40;;;;;;1990599;28;19913;-67
2022/07/17 04:53:56;;;;;;;;;;;19.80;76.20;;;;;;1990777;28;19968;-66
2022/07/17 04:56:30;;;;;;;;;;;19.80;76.20;;;;;;1990551;28;19906;-67
2022/07/17 04:57:29;;;;;;;;;;;19.80;76.30;;;;;;1990711;28;19906;-67
2022/07/17 04:58:27;;;;;;;;;;;19.80;76.40;;;;;;1990527;28;19909;-67
2022/07/17 04:59:26;;;;;;;;;;;19.80;76.20;;;;;;1990555;28;19905;-67
2022/07/17 05:00:24;;;;;;;;;;;19.80;76.30;;;;;;1990383;28;20373;-66
2022/07/17 05:01:23;;;;;;;;;;;19.80;76.20;;;;;;1990363;28;19924;-67
2022/07/17 05:02:21;;;;;;;;;;;19.80;76.20;;;;;;1990459;28;20362;-67
2022/07/17 05:03:20;;;;;;;;;;;19.80;76.30;;;;;;1990563;28;20071;-68
2022/07/17 05:04:18;;;;;;;;;;;19.90;76.60;;;;;;1990559;28;19961;-67
2022/07/17 05:05:17;;;;;;;;;;;19.80;75.80;;;;;;1990693;28;20274;-67
2022/07/17 05:06:15;;;;;;;;;;;19.80;76.30;;;;;;1990464;28;20026;-67
2022/07/17 05:07:14;;;;;;;;;;;19.80;75.20;;;;;;1990580;28;19920;-68
2022/07/17 05:08:12;;;;;;;;;;;19.80;76.10;;;;;;1990461;28;19916;-67
2022/07/17 05:09:11;;;;;;;;;;;19.80;75.70;;;;;;1990363;28;20338;-67
2022/07/17 05:10:09;;;;;;;;;;;19.80;76.10;;;;;;1990402;28;19993;-67
2022/07/17 05:11:08;;;;;;;;;;;19.80;76.20;;;;;;1990275;28;19922;-68
2022/07/17 05:12:06;;;;;;;;;;;19.80;75.90;;;;;;1990516;28;19906;-67
2022/07/17 05:13:05;;;;;;;;;;;19.80;76.00;;;;;;1990337;28;19906;-66
2022/07/17 05:14:04;;;;;;;;;;;19.80;75.60;;;;;;1990441;28;19974;-67
2022/07/17 05:15:03;;;;;;;;;;;19.80;75.60;;;;;;1990362;28;19910;-67
2022/07/17 05:16:01;;;;;;;;;;;19.80;75.50;;;;;;1990376;28;20396;-67
2022/07/17 05:17:00;;;;;;;;;;;19.80;75.30;;;;;;1990584;28;19909;-68
2022/07/17 05:17:58;;;;;;;;;;;19.80;74.90;;;;;;1990464;28;19906;-67
2022/07/17 05:18:57;;;;;;;;;;;19.90;75.10;;;;;;1990341;28;19952;-67
2022/07/17 05:19:55;;;;;;;;;;;19.80;74.90;;;;;;1990277;28;19938;-68
2022/07/17 05:20:54;;;;;;;;;;;19.80;74.80;;;;;;1990392;28;19906;-67
2022/07/17 05:21:52;;;;;;;;;;;19.80;73.00;;;;;;1990420;28;19910;-67
2022/07/17 05:22:51;;;;;;;;;;;19.80;74.70;;;;;;1990592;28;19910;-68
2022/07/17 05:23:49;;;;;;;;;;;19.80;74.60;;;;;;1990466;28;19941;-67
2022/07/17 05:24:48;;;;;;;;;;;19.80;74.40;;;;;;1990495;28;20365;-68
2022/07/17 05:25:46;;;;;;;;;;;19.80;74.80;;;;;;1990246;28;19952;-67
2022/07/17 05:26:45;;;;;;;;;;;19.80;74.40;;;;;;1990296;28;19928;-67
2022/07/17 05:27:43;;;;;;;;;;;19.90;74.40;;;;;;1990403;28;20349;-67
2022/07/17 05:28:42;;;;;;;;;;;19.80;74.40;;;;;;1990350;28;20000;-67
2022/07/17 05:29:40;;;;;;;;;;;19.80;74.20;;;;;;1990474;28;19930;-67
2022/07/17 05:30:39;;;;;;;;;;;19.80;74.30;;;;;;1990333;28;20391;-67
2022/07/17 05:31:37;;;;;;;;;;;19.90;74.40;;;;;;1990298;28;19912;-67
2022/07/17 05:32:35;;;;;;;;;;;19.90;74.50;;;;;;1990329;28;19910;-67
2022/07/17 05:33:34;;;;;;;;;;;19.90;74.40;;;;;;1990230;28;19906;-67
2022/07/17 05:34:32;;;;;;;;;;;19.80;74.40;;;;;;1989725;28;19987;-67
2022/07/17 05:35:31;;;;;;;;;;;19.80;74.30;;;;;;1990251;28;19906;-67
2022/07/17 05:36:29;;;;;;;;;;;19.80;74.40;;;;;;1990134;28;19906;-67
2022/07/17 05:37:28;;;;;;;;;;;19.90;74.40;;;;;;1990307;28;19906;-67
2022/07/17 05:38:26;;;;;;;;;;;19.80;74.50;;;;;;1990325;28;19956;-67
2022/07/17 05:39:25;;;;;;;;;;;19.90;74.50;;;;;;1990244;28;19941;-67
2022/07/17 05:40:25;;;;;;;;;;;19.80;74.40;;;;;;1990169;28;20278;-67
2022/07/17 05:41:24;;;;;;;;;;;19.90;74.70;;;;;;1990316;28;19907;-67
2022/07/17 05:42:22;;;;;;;;;;;19.90;74.70;;;;;;1990146;28;19910;-67
2022/07/17 05:43:21;;;;;;;;;;;19.90;74.80;;;;;;1990272;28;19953;-67
2022/07/17 05:44:19;;;;;;;;;;;19.90;74.50;;;;;;1990305;28;19906;-66
2022/07/17 05:45:18;;;;;;;;;;;19.90;75.00;;;;;;1990212;28;19913;-68
2022/07/17 05:46:16;;;;;;;;;;;19.90;74.70;;;;;;1990153;28;19910;-67
2022/07/17 05:47:15;;;;;;;;;;;19.80;74.90;;;;;;1990202;28;20384;-68
2022/07/17 05:48:13;;;;;;;;;;;19.90;75.10;;;;;;1990386;28;19928;-67